Flight Track Log - Related Links

Times and Time Zones

All times are in EDT time to prevent confusion due to time zone crossing. See the SLI159 flight status page for this flight to view local times or setup timezone preferences in your user account.

Time Position Orientation Groundspeed Altitude Reporting Facility
EDT Latitude Longitude Course Direction KTS MPH feet Rate Location/Type
Tue 03:50:00 PM 24.5998 -107.1934 123° Southeast  Level Estimated
Tue 03:51:00 PM 24.5448 -107.0998 123° Southeast  Level Estimated
Tue 03:52:00 PM 24.4897 -107.0063 123° Southeast  Level Estimated
Tue 03:53:00 PM 24.4345 -106.9129 123° Southeast  Level Estimated
Tue 03:54:00 PM 24.3794 -106.8195 123° Southeast  Level Estimated
Tue 03:55:00 PM 24.3241 -106.7263 123° Southeast  Level Estimated
Tue 03:56:00 PM 24.2688 -106.6331 123° Southeast  Level Estimated
Tue 03:57:00 PM 24.2134 -106.5400 123° Southeast  Level Estimated
Tue 03:58:00 PM 24.1580 -106.4469 123° Southeast  Level Estimated
Tue 03:59:00 PM 24.1025 -106.3540 123° Southeast  Level Estimated
Tue 04:00:00 PM 24.0469 -106.2611 123° Southeast  Level Estimated
Tue 04:01:00 PM 23.9913 -106.1684 123° Southeast  Level Estimated
Tue 04:02:00 PM 23.9357 -106.0757 123° Southeast  Level Estimated
Tue 04:03:00 PM 23.8800 -105.9830 123° Southeast  Level Estimated
Tue 04:04:00 PM 23.8242 -105.8905 123° Southeast  Level Estimated
Tue 04:05:00 PM 23.7684 -105.7980 123° Southeast  Level Estimated
Tue 04:06:00 PM 23.7125 -105.7057 123° Southeast  Level Estimated
Tue 04:07:00 PM 23.6566 -105.6133 123° Southeast  Level Estimated
Tue 04:08:00 PM 23.6006 -105.5211 124° Southeast  Level Estimated
Tue 04:09:00 PM 23.5446 -105.4290 124° Southeast  Level Estimated
Tue 04:10:00 PM 23.4885 -105.3369 124° Southeast  Level Estimated
Tue 04:11:00 PM 23.4323 -105.2449 124° Southeast  Level Estimated
Tue 04:12:00 PM 23.3761 -105.1530 124° Southeast  Level Estimated
Tue 04:13:00 PM 23.3199 -105.0611 124° Southeast  Level Estimated
Tue 04:14:00 PM 23.2636 -104.9694 124° Southeast  Level Estimated
Tue 04:15:00 PM 23.2072 -104.8777 124° Southeast  Level Estimated
Tue 04:16:00 PM 23.1508 -104.7861 124° Southeast  Level Estimated
Tue 04:17:00 PM 23.0943 -104.6946 124° Southeast  Level Estimated
Tue 04:18:00 PM 23.0378 -104.6031 124° Southeast  Level Estimated
Tue 04:19:00 PM 22.9813 -104.5118 124° Southeast  Level Estimated
Tue 04:20:00 PM 22.9246 -104.4205 124° Southeast  Level Estimated
Tue 04:21:00 PM 22.8679 -104.3292 124° Southeast  Level Estimated
Tue 04:22:00 PM 22.8112 -104.2381 124° Southeast  Level Estimated
Tue 04:23:00 PM 22.7544 -104.1470 124° Southeast  Level Estimated
Tue 04:24:00 PM 22.6976 -104.0560 124° Southeast  Level Estimated
Tue 04:25:00 PM 22.6407 -103.9651 124° Southeast  Level Estimated
Tue 04:26:00 PM 22.5838 -103.8743 124° Southeast  Level Estimated
Tue 04:27:00 PM 22.5268 -103.7835 124° Southeast  Level Estimated
Tue 04:28:00 PM 22.4697 -103.6928 124° Southeast  Level Estimated
Tue 04:29:00 PM 22.4127 -103.6022 124° Southeast  Level Estimated
Tue 04:30:00 PM 22.3555 -103.5117 124° Southeast  Level Estimated
Tue 04:31:00 PM 22.2983 -103.4212 124° Southeast  Level Estimated
Tue 04:32:00 PM 22.2411 -103.3308 124° Southeast  Level Estimated
Tue 04:33:00 PM 22.1838 -103.2405 124° Southeast  Level Estimated
Tue 04:34:00 PM 22.1265 -103.1502 124° Southeast  Level Estimated
Tue 04:35:00 PM 22.0691 -103.0601 124° Southeast  Level Estimated
Tue 04:36:00 PM 22.0116 -102.9700 125° Southeast  Level Estimated
Tue 04:37:00 PM 21.9541 -102.8799 125° Southeast  Level Estimated
Tue 04:38:00 PM 21.8966 -102.7900 125° Southeast  Level Estimated
Tue 04:39:00 PM 21.8390 -102.7001 125° Southeast  Level Estimated
Tue 04:40:00 PM 21.7814 -102.6103 125° Southeast  Level Estimated
Tue 04:41:00 PM 21.7237 -102.5206 125° Southeast  Level Estimated
Tue 04:42:00 PM 21.6660 -102.4309 125° Southeast  Level Estimated
Tue 04:43:00 PM 21.6082 -102.3413 125° Southeast  Level Estimated
Tue 04:44:00 PM 21.5504 -102.2518 125° Southeast  Level Estimated
Tue 04:45:00 PM 21.4925 -102.1623 125° Southeast  Level Estimated
Tue 04:46:00 PM 21.4346 -102.0730 125° Southeast  Level Estimated
Tue 04:47:00 PM 21.3766 -101.9836 125° Southeast  Level Estimated
Tue 04:48:00 PM 21.3186 -101.8944 125° Southeast  Level Estimated
Tue 04:49:00 PM 21.2605 -101.8052 125° Southeast  Level Estimated
Tue 04:50:00 PM 21.2024 -101.7161 125° Southeast  Level Estimated
Tue 04:51:00 PM 21.1443 -101.6271 125° Southeast  Level Estimated
Tue 04:52:00 PM 21.0861 -101.5381 125° Southeast  Level Estimated
Tue 04:53:00 PM 21.0278 -101.4492 125° Southeast  Level Estimated
Tue 04:54:00 PM 20.9695 -101.3604 125° Southeast  Level Estimated
Tue 04:55:00 PM 20.9112 -101.2717 125° Southeast  Level Estimated
Tue 04:56:00 PM 20.8528 -101.1830 125° Southeast  Level Estimated
Tue 04:57:00 PM 20.7944 -101.0944 125° Southeast  Level Estimated
Tue 04:58:00 PM 20.7359 -101.0059 125° Southeast  Level Estimated
Tue 04:59:00 PM 20.6774 -100.9174 125° Southeast  Level Estimated
Tue 05:00:00 PM 20.6188 -100.8290 125° Southeast  Level Estimated
Tue 05:01:00 PM 20.5602 -100.7406 125° Southeast  Level Estimated
Tue 05:02:00 PM 20.5015 -100.6524 125° Southeast  Level Estimated
Tue 05:03:00 PM 20.4428 -100.5642 125° Southeast  Level Estimated
Tue 05:04:00 PM 20.3841 -100.4760 125° Southeast  Level Estimated
Tue 05:05:00 PM 20.3253 -100.3880 125° Southeast  Level Estimated
Tue 05:06:00 PM 20.2664 -100.3000 125° Southeast  Level Estimated
Tue 05:07:00 PM 20.2076 -100.2120 125° Southeast  Level Estimated
Tue 05:08:00 PM 20.1486 -100.1242 126° Southeast  Level Estimated
Tue 05:09:00 PM 20.0897 -100.0364 126° Southeast  Level Estimated
Tue 05:10:00 PM 20.0307 -99.9486 126° Southeast  Level Estimated
Tue 05:11:00 PM 19.9716 -99.8610 126° Southeast  Level Estimated
Tue 05:12:00 PM 19.9125 -99.7734 126° Southeast  Level Estimated
Tue 05:13:00 PM 19.8534 -99.6858 126° Southeast  Level Estimated
Tue 05:14:00 PM 19.7942 -99.5984 126° Southeast  Level Estimated
Tue 05:15:00 PM 19.7350 -99.5109 126° Southeast  Level Estimated
Tue 05:16:00 PM 19.6757 -99.4236 126° Southeast  Level Estimated
Tue 05:17:00 PM 19.6164 -99.3363 126° Southeast  Level Estimated
Tue 05:18:00 PM 19.5570 -99.2491 126° Southeast  Level Estimated
Tue 05:19:00 PM 19.4977 -99.1620 126° Southeast  Level Estimated
Tue 05:20:00 PM 19.4382 -99.0749 126° Southeast  Level Estimated
Tue 05:21:00 PM 19.4363 -99.0721 126° Southeast  Level Estimated
Tue 05:22:00 PM 19.4363 -99.0721 43° Northeast  Level Estimated

Login

Don't have an account? Register now (free) for customized features, flight alerts, and more!